createdAt,value
2019-02-14T00:00:43.088Z,6.87
2019-02-14T00:03:12.515Z,6.93
2019-02-14T00:05:41.964Z,6.97
2019-02-14T00:08:11.308Z,7.02
2019-02-14T00:10:40.732Z,7.02
2019-02-14T00:13:10.075Z,6.94
2019-02-14T00:15:39.453Z,6.95
2019-02-14T00:18:08.790Z,7.02
2019-02-14T00:20:38.166Z,7.06
2019-02-14T00:23:07.580Z,7.12
2019-02-14T00:25:37.006Z,7.22
2019-02-14T00:28:06.340Z,7.19
2019-02-14T00:30:35.697Z,7.01
2019-02-14T00:33:05.037Z,7.04
2019-02-14T00:35:34.401Z,7.01
2019-02-14T00:38:03.740Z,7.04
2019-02-14T00:40:33.110Z,7.07
2019-02-14T00:43:02.513Z,7.04
2019-02-14T00:45:31.872Z,7.00
2019-02-14T00:48:01.281Z,7.02
2019-02-14T00:50:30.645Z,6.98
2019-02-14T00:52:59.980Z,7.00
2019-02-14T00:55:29.347Z,6.97
2019-02-14T00:57:58.678Z,6.97
2019-02-14T01:00:28.037Z,6.99
2019-02-14T01:02:57.383Z,7.00
2019-02-14T01:05:33.409Z,7.02
2019-02-14T01:07:57.821Z,7.00
2019-02-14T01:10:27.150Z,6.92
2019-02-14T01:12:56.507Z,6.89
2019-02-14T01:15:27.217Z,6.91
2019-02-14T01:17:56.595Z,6.94
2019-02-14T01:20:25.921Z,6.94
2019-02-14T01:22:55.360Z,6.93
2019-02-14T01:25:24.855Z,6.89
2019-02-14T01:27:54.225Z,6.83
2019-02-14T01:30:23.560Z,6.84
2019-02-14T01:32:53.174Z,6.81
2019-02-14T01:35:22.513Z,6.81
2019-02-14T01:37:51.944Z,6.76
2019-02-14T01:40:21.285Z,6.76
2019-02-14T01:42:51.160Z,6.71
2019-02-14T01:45:20.563Z,6.72
2019-02-14T01:47:50.183Z,6.72
2019-02-14T01:50:19.554Z,6.76
2019-02-14T01:52:48.921Z,6.81
2019-02-14T01:55:18.256Z,6.83
2019-02-14T01:57:48.132Z,6.88
2019-02-14T02:00:18.030Z,6.87
2019-02-14T02:02:47.389Z,6.89
2019-02-14T02:05:16.730Z,6.92
2019-02-14T02:07:46.096Z,6.95
2019-02-14T02:10:15.431Z,6.96
2019-02-14T02:12:44.858Z,6.98
2019-02-14T02:15:14.715Z,6.96
2019-02-14T02:17:44.152Z,7.02
2019-02-14T02:20:13.487Z,7.04
2019-02-14T02:22:42.859Z,7.02
2019-02-14T02:25:12.462Z,7.03
2019-02-14T02:27:41.819Z,7.03
2019-02-14T02:30:13.492Z,6.99
2019-02-14T02:32:42.865Z,6.95
2019-02-14T02:35:12.205Z,6.94
2019-02-14T02:37:41.564Z,6.97
2019-02-14T02:40:10.902Z,6.98
2019-02-14T02:42:40.268Z,7.05
2019-02-14T02:45:11.543Z,7.12
2019-02-14T02:47:40.908Z,7.18
2019-02-14T02:50:11.876Z,7.18
2019-02-14T02:52:41.241Z,7.19
2019-02-14T02:55:10.854Z,7.24
2019-02-14T02:57:40.219Z,7.28
2019-02-14T03:00:12.649Z,7.31
2019-02-14T03:02:42.007Z,7.31
2019-02-14T03:05:12.986Z,7.33
2019-02-14T03:07:42.364Z,7.31
2019-02-14T03:10:13.230Z,7.34
2019-02-14T03:12:42.601Z,7.36
2019-02-14T03:15:13.677Z,7.36
2019-02-14T03:17:43.040Z,7.39
2019-02-14T03:20:13.027Z,7.41
2019-02-14T03:22:42.375Z,7.43
2019-02-14T03:25:18.909Z,7.46
2019-02-14T03:27:48.281Z,7.46
2019-02-14T03:30:17.625Z,7.52
2019-02-14T03:32:46.974Z,7.58
2019-02-14T03:35:16.318Z,7.57
2019-02-14T03:37:45.682Z,7.58
2019-02-14T03:40:15.284Z,7.53
2019-02-14T03:42:44.651Z,7.54
2019-02-14T03:45:18.963Z,7.58
2019-02-14T03:47:48.374Z,7.67
2019-02-14T03:50:17.654Z,7.60
2019-02-14T03:52:47.015Z,7.67
2019-02-14T03:55:16.360Z,7.65
2019-02-14T03:57:46.162Z,7.63
2019-02-14T04:00:16.749Z,7.64
2019-02-14T04:02:46.380Z,7.62
2019-02-14T04:05:15.709Z,7.61
2019-02-14T04:07:45.063Z,7.57
2019-02-14T04:10:14.733Z,7.55
2019-02-14T04:12:44.108Z,7.58
2019-02-14T04:15:16.047Z,7.56
2019-02-14T04:17:45.420Z,7.55
2019-02-14T04:20:14.751Z,7.55
2019-02-14T04:22:44.111Z,7.54
2019-02-14T04:25:13.471Z,7.54
2019-02-14T04:27:42.838Z,7.55
2019-02-14T04:30:13.242Z,7.58
2019-02-14T04:32:42.576Z,7.53
2019-02-14T04:35:11.964Z,7.52
2019-02-14T04:37:41.278Z,7.53
2019-02-14T04:40:13.755Z,7.51
2019-02-14T04:42:43.085Z,7.57
2019-02-14T04:45:13.313Z,7.52
2019-02-14T04:47:43.024Z,7.54
2019-02-14T04:50:12.397Z,7.56
2019-02-14T04:52:41.729Z,7.60
2019-02-14T04:55:11.523Z,7.65
2019-02-14T04:57:40.862Z,7.70
2019-02-14T05:00:14.306Z,7.71
2019-02-14T05:02:43.644Z,7.75
2019-02-14T05:05:13.006Z,7.81
2019-02-14T05:07:43.378Z,7.80
2019-02-14T05:10:19.715Z,7.81
2019-02-14T05:12:52.285Z,7.84
2019-02-14T05:15:37.102Z,7.90
2019-02-14T05:18:05.265Z,7.88
2019-02-14T05:20:34.680Z,7.78
2019-02-14T05:23:04.013Z,7.73
2019-02-14T05:25:36.896Z,7.81
2019-02-14T05:28:12.235Z,7.82
2019-02-14T05:30:41.565Z,7.88
2019-02-14T05:33:10.909Z,7.83
2019-02-14T05:35:50.381Z,7.76
2019-02-14T05:38:36.302Z,7.77
2019-02-14T05:40:59.287Z,7.74
2019-02-14T05:43:29.558Z,7.76
2019-02-14T05:45:58.927Z,7.69
2019-02-14T05:48:34.966Z,7.67
2019-02-14T05:51:02.967Z,7.72
2019-02-14T05:53:41.882Z,7.69
2019-02-14T05:56:11.465Z,7.76
2019-02-14T05:58:40.798Z,7.76
2019-02-14T06:01:14.994Z,7.79
2019-02-14T06:03:44.420Z,7.85
2019-02-14T06:06:13.870Z,7.86
2019-02-14T06:08:43.209Z,7.88
2019-02-14T06:11:12.711Z,7.93
2019-02-14T06:13:42.057Z,7.95
2019-02-14T06:16:13.226Z,7.91
2019-02-14T06:18:44.458Z,7.79
2019-02-14T06:21:18.116Z,7.74
2019-02-14T06:23:49.250Z,7.67
2019-02-14T06:26:20.600Z,7.66
2019-02-14T06:28:52.868Z,7.66
2019-02-14T06:31:22.839Z,7.67
2019-02-14T06:33:52.761Z,7.73
2019-02-14T06:36:24.249Z,7.72
2019-02-14T06:38:56.511Z,7.71
2019-02-14T06:41:28.452Z,7.67
2019-02-14T06:44:01.156Z,7.71
2019-02-14T06:46:34.777Z,7.68
2019-02-14T06:49:06.385Z,7.66
2019-02-14T06:51:36.366Z,7.71
2019-02-14T06:54:09.521Z,7.67
2019-02-14T06:56:47.234Z,7.72
2019-02-14T06:59:17.956Z,7.67
2019-02-14T07:01:51.135Z,7.70
2019-02-14T07:04:27.184Z,7.66
2019-02-14T07:06:59.116Z,7.61
2019-02-14T07:09:29.237Z,7.60
2019-02-14T07:12:06.898Z,7.66
2019-02-14T07:14:41.676Z,7.64
2019-02-14T07:17:19.194Z,7.68
2019-02-14T07:19:49.955Z,7.75
2019-02-14T07:22:21.931Z,7.80
2019-02-14T07:24:57.783Z,7.80
2019-02-14T07:27:32.670Z,7.81
2019-02-14T07:30:02.622Z,7.77
2019-02-14T07:32:36.893Z,7.77
2019-02-14T07:35:08.851Z,7.74
2019-02-14T07:37:42.806Z,7.77
2019-02-14T07:40:15.946Z,7.74
2019-02-14T07:42:48.095Z,7.74
2019-02-14T07:45:18.516Z,7.68
2019-02-14T07:47:49.099Z,7.69
2019-02-14T07:50:19.067Z,7.67
2019-02-14T07:52:49.158Z,7.77
2019-02-14T07:55:20.224Z,7.73
2019-02-14T07:57:54.047Z,7.71
2019-02-14T08:00:26.876Z,7.81
2019-02-14T08:02:56.817Z,7.86
2019-02-14T08:05:30.345Z,7.84
2019-02-14T08:08:01.581Z,7.91
2019-02-14T08:10:32.232Z,7.91
2019-02-14T08:13:06.289Z,7.95
2019-02-14T08:15:43.135Z,7.96
2019-02-14T08:18:14.341Z,7.91
2019-02-14T08:20:44.337Z,7.88
2019-02-14T08:23:15.395Z,7.86
2019-02-14T08:25:51.689Z,7.85
2019-02-14T08:28:27.392Z,7.92
2019-02-14T08:31:06.888Z,7.92
2019-02-14T08:33:46.425Z,7.94
2019-02-14T08:36:22.385Z,7.94
2019-02-14T08:38:55.373Z,7.96
2019-02-14T08:41:28.308Z,7.98
2019-02-14T08:44:01.894Z,7.96
2019-02-14T08:46:31.885Z,7.94
2019-02-14T08:49:04.342Z,8.02
2019-02-14T08:51:39.404Z,8.10
2019-02-14T08:54:13.585Z,8.09
2019-02-14T08:56:50.283Z,8.13
2019-02-14T08:59:20.187Z,8.19
2019-02-14T09:01:52.320Z,8.25
2019-02-14T09:04:30.246Z,8.22
2019-02-14T09:07:11.239Z,8.32
2019-02-14T09:09:42.242Z,8.34
2019-02-14T09:12:16.064Z,8.31
2019-02-14T09:14:47.063Z,8.33
2019-02-14T09:17:16.829Z,8.27
2019-02-14T09:19:54.025Z,8.28
2019-02-14T09:22:26.339Z,8.29
2019-02-14T09:24:58.020Z,8.29
2019-02-14T09:27:29.906Z,8.32
2019-02-14T09:30:05.556Z,8.36
2019-02-14T09:32:35.986Z,8.34
2019-02-14T09:35:08.985Z,8.31
2019-02-14T09:37:38.878Z,8.29
2019-02-14T09:40:11.441Z,8.31
2019-02-14T09:42:43.298Z,8.26
2019-02-14T09:45:14.732Z,8.29
2019-02-14T09:47:44.677Z,8.33
2019-02-14T09:50:17.213Z,8.33
2019-02-14T09:52:48.187Z,8.43
2019-02-14T09:55:18.191Z,8.43
2019-02-14T09:57:48.150Z,8.40
2019-02-14T10:00:18.984Z,8.50
2019-02-14T10:02:52.173Z,8.56
2019-02-14T10:05:26.488Z,8.66
2019-02-14T10:07:57.805Z,8.71
2019-02-14T10:10:31.889Z,8.68
2019-02-14T10:13:06.156Z,8.74
2019-02-14T10:15:52.040Z,8.72
2019-02-14T10:18:25.735Z,8.68
2019-02-14T10:20:58.903Z,8.71
2019-02-14T10:23:35.077Z,8.76
2019-02-14T10:26:06.523Z,8.76
2019-02-14T10:28:35.910Z,8.78
2019-02-14T10:31:05.310Z,8.79
2019-02-14T10:33:37.409Z,8.82
2019-02-14T10:36:13.213Z,8.85
2019-02-14T10:38:44.613Z,8.85
2019-02-14T10:41:17.272Z,8.90
2019-02-14T10:43:49.088Z,8.93
2019-02-14T10:46:21.823Z,8.94
2019-02-14T10:48:51.300Z,8.92
2019-02-14T10:51:20.785Z,8.92
2019-02-14T10:53:50.779Z,8.88
2019-02-14T10:56:24.350Z,8.92
2019-02-14T10:58:56.102Z,8.98
2019-02-14T11:01:30.884Z,9.01
2019-02-14T11:04:02.813Z,8.98
2019-02-14T11:06:32.234Z,8.98
2019-02-14T11:09:05.435Z,8.95
2019-02-14T11:11:35.484Z,8.95
2019-02-14T11:14:04.850Z,9.02
2019-02-14T11:16:34.716Z,9.07
2019-02-14T11:19:06.168Z,9.09
2019-02-14T11:21:39.040Z,9.10
2019-02-14T11:24:08.592Z,9.08
2019-02-14T11:26:39.992Z,9.02
2019-02-14T11:29:14.511Z,9.08
2019-02-14T11:31:50.516Z,9.16
2019-02-14T11:34:26.272Z,9.21
2019-02-14T11:36:59.843Z,9.13
2019-02-14T11:39:31.248Z,9.15
2019-02-14T11:42:01.891Z,9.20
2019-02-14T11:44:39.796Z,9.17
2019-02-14T11:47:09.693Z,9.28
2019-02-14T11:49:41.840Z,9.36
2019-02-14T11:52:12.641Z,9.47
2019-02-14T11:54:42.622Z,9.61
2019-02-14T11:57:14.106Z,9.78
2019-02-14T11:59:44.020Z,9.66
2019-02-14T12:02:16.679Z,9.66
2019-02-14T12:04:47.324Z,9.63
2019-02-14T12:07:18.877Z,9.46
2019-02-14T12:09:49.419Z,9.32
2019-02-14T12:12:22.956Z,9.15
2019-02-14T12:14:54.221Z,9.15
2019-02-14T12:17:25.133Z,9.14
2019-02-14T12:19:58.158Z,9.17
2019-02-14T12:22:34.788Z,9.21
2019-02-14T12:25:11.854Z,9.22
2019-02-14T12:27:43.323Z,9.26
2019-02-14T12:30:20.842Z,9.27
2019-02-14T12:32:57.383Z,9.29
2019-02-14T12:35:28.415Z,9.31
2019-02-14T12:37:58.481Z,9.23
2019-02-14T12:40:32.082Z,9.24
2019-02-14T12:43:06.823Z,9.20
2019-02-14T12:45:38.657Z,9.18
2019-02-14T12:48:12.351Z,9.06
2019-02-14T12:50:45.308Z,9.01
2019-02-14T12:53:20.232Z,9.07
2019-02-14T12:55:55.171Z,9.08
2019-02-14T12:58:26.192Z,9.13
2019-02-14T13:00:58.301Z,9.17
2019-02-14T13:03:30.853Z,9.11
2019-02-14T13:06:00.984Z,9.06
2019-02-14T13:08:30.862Z,9.03
2019-02-14T13:11:00.336Z,9.03
2019-02-14T13:13:30.503Z,9.01
2019-02-14T13:16:05.922Z,9.06
2019-02-14T13:18:39.025Z,9.03
2019-02-14T13:21:14.106Z,9.03
2019-02-14T13:23:47.135Z,9.09
2019-02-14T13:26:25.045Z,9.16
2019-02-14T13:28:55.472Z,9.09
2019-02-14T13:31:32.154Z,9.09
2019-02-14T13:34:00.617Z,9.11
2019-02-14T13:36:31.145Z,8.98
2019-02-14T13:39:06.023Z,8.99
2019-02-14T13:41:36.421Z,8.92
2019-02-14T13:44:09.856Z,8.84
2019-02-14T13:46:41.275Z,8.81
2019-02-14T13:49:10.943Z,8.72
2019-02-14T13:51:41.039Z,8.70
2019-02-14T13:54:10.374Z,8.72
2019-02-14T13:56:39.739Z,8.69
2019-02-14T13:59:10.183Z,8.71
2019-02-14T14:01:39.629Z,8.69
2019-02-14T14:04:09.001Z,8.70
2019-02-14T14:06:38.340Z,8.70
2019-02-14T14:09:08.900Z,8.71
2019-02-14T14:11:38.308Z,8.71
2019-02-14T14:14:07.685Z,8.75
2019-02-14T14:16:37.566Z,8.70
2019-02-14T14:19:08.240Z,8.73
2019-02-14T14:21:41.081Z,8.63
2019-02-14T14:24:16.063Z,8.61
2019-02-14T14:26:51.716Z,8.65
2019-02-14T14:29:25.883Z,8.70
2019-02-14T14:31:56.965Z,8.71
2019-02-14T14:34:27.115Z,8.64
2019-02-14T14:36:57.085Z,8.66
2019-02-14T14:39:29.953Z,8.62
2019-02-14T14:41:59.739Z,8.61
2019-02-14T14:44:31.316Z,8.65
2019-02-14T14:47:01.156Z,8.67
2019-02-14T14:49:36.904Z,8.69
2019-02-14T14:52:16.185Z,8.65
2019-02-14T14:54:45.616Z,8.62
2019-02-14T14:57:15.874Z,8.65
2019-02-14T14:59:47.553Z,8.64
2019-02-14T15:02:23.463Z,8.60
2019-02-14T15:04:55.289Z,8.56
2019-02-14T15:07:32.964Z,8.59
2019-02-14T15:10:02.872Z,8.61
2019-02-14T15:12:35.790Z,8.56
2019-02-14T15:15:10.276Z,8.54
2019-02-14T15:17:40.238Z,8.49
2019-02-14T15:20:12.636Z,8.45
2019-02-14T15:22:46.769Z,8.39
2019-02-14T15:25:20.687Z,8.39
2019-02-14T15:27:50.575Z,8.33
2019-02-14T15:30:20.568Z,8.28
2019-02-14T15:32:52.013Z,8.23
2019-02-14T15:35:26.194Z,8.21
2019-02-14T15:37:56.081Z,8.17
2019-02-14T15:40:26.072Z,8.10
2019-02-14T15:42:57.617Z,8.12
2019-02-14T15:45:28.110Z,8.17
2019-02-14T15:48:00.519Z,8.13
2019-02-14T15:50:34.521Z,8.18
2019-02-14T15:53:10.329Z,8.16
2019-02-14T15:55:43.784Z,8.10
2019-02-14T15:58:15.836Z,8.04
2019-02-14T16:00:49.416Z,8.10
2019-02-14T16:03:19.641Z,8.08
2019-02-14T16:05:53.236Z,8.09
2019-02-14T16:08:27.565Z,8.11
2019-02-14T16:11:02.354Z,8.07
2019-02-14T16:13:38.165Z,8.04
2019-02-14T16:16:08.100Z,7.98
2019-02-14T16:18:40.784Z,7.99
2019-02-14T16:21:15.643Z,7.96
2019-02-14T16:23:46.874Z,7.98
2019-02-14T16:26:18.436Z,7.99
2019-02-14T16:28:52.025Z,7.95
2019-02-14T16:31:23.433Z,7.95
2019-02-14T16:33:53.316Z,7.96
2019-02-14T16:36:23.353Z,7.98
2019-02-14T16:39:01.268Z,8.00
2019-02-14T16:41:35.778Z,7.97
2019-02-14T16:44:09.101Z,7.99
2019-02-14T16:46:44.961Z,8.00
2019-02-14T16:49:19.742Z,8.03
2019-02-14T16:51:55.444Z,8.03
2019-02-14T16:54:28.621Z,8.05
2019-02-14T16:57:00.303Z,7.96
2019-02-14T16:59:29.859Z,7.90
2019-02-14T17:02:07.935Z,7.88
2019-02-14T17:04:37.878Z,7.94
2019-02-14T17:07:09.598Z,7.86
2019-02-14T17:09:41.022Z,7.82
2019-02-14T17:12:10.912Z,7.82
2019-02-14T17:14:45.342Z,7.82
2019-02-14T17:17:17.935Z,7.81
2019-02-14T17:19:52.707Z,7.82
2019-02-14T17:22:23.797Z,7.80
2019-02-14T17:24:56.043Z,7.79
2019-02-14T17:27:30.802Z,7.75
2019-02-14T17:30:04.486Z,7.74
2019-02-14T17:32:34.916Z,7.72
2019-02-14T17:35:05.632Z,7.71
2019-02-14T17:37:37.257Z,7.72
2019-02-14T17:40:09.729Z,7.64
2019-02-14T17:42:46.746Z,7.65
2019-02-14T17:45:16.658Z,7.64
2019-02-14T17:47:47.684Z,7.62
2019-02-14T17:52:46.229Z,7.71
2019-02-14T17:55:19.158Z,7.66
2019-02-14T17:57:52.265Z,7.62
2019-02-14T18:00:22.125Z,7.65
2019-02-14T18:02:55.156Z,7.64
2019-02-14T18:05:26.034Z,7.66
2019-02-14T18:07:58.218Z,7.72
2019-02-14T18:10:31.543Z,7.74
2019-02-14T18:13:06.652Z,7.72
2019-02-14T18:15:37.477Z,7.69
2019-02-14T18:18:06.987Z,7.71
2019-02-14T18:20:36.365Z,7.68
2019-02-14T18:23:05.740Z,7.70
2019-02-14T18:25:35.244Z,7.65
2019-02-14T18:28:04.680Z,7.64
2019-02-14T18:30:34.012Z,7.67
2019-02-14T18:33:03.389Z,7.65
2019-02-14T18:35:32.753Z,7.64
2019-02-14T18:38:02.115Z,7.65
2019-02-14T18:40:31.447Z,7.58
2019-02-14T18:43:00.821Z,7.61
2019-02-14T18:45:30.221Z,7.65
2019-02-14T18:47:59.611Z,7.66
2019-02-14T18:50:28.942Z,7.61
2019-02-14T18:52:58.330Z,7.59
2019-02-14T18:55:27.668Z,7.60
2019-02-14T18:57:57.054Z,7.61
2019-02-14T19:00:26.391Z,7.64
2019-02-14T19:02:55.772Z,7.56
2019-02-14T19:05:25.189Z,7.57
2019-02-14T19:07:54.788Z,7.54
2019-02-14T19:10:24.167Z,7.59
2019-02-14T19:12:55.717Z,7.56
2019-02-14T19:15:29.572Z,7.55
2019-02-14T19:17:59.081Z,7.56
2019-02-14T19:20:28.471Z,7.65
2019-02-14T19:22:57.822Z,7.55
2019-02-14T19:25:29.653Z,7.56
2019-02-14T19:27:58.258Z,7.52
2019-02-14T19:30:33.355Z,7.41
2019-02-14T19:33:02.780Z,7.43
2019-02-14T19:35:32.242Z,7.46
2019-02-14T19:38:01.655Z,7.52
2019-02-14T19:40:31.057Z,7.48
2019-02-14T19:43:00.484Z,7.52
2019-02-14T19:45:36.400Z,7.53
2019-02-14T19:48:01.108Z,7.56
2019-02-14T19:50:31.829Z,7.58
2019-02-14T19:53:01.699Z,7.60
2019-02-14T19:55:31.071Z,7.64
2019-02-14T19:58:00.480Z,7.62
2019-02-14T20:00:31.378Z,7.56
2019-02-14T20:03:00.832Z,7.53
2019-02-14T20:05:30.220Z,7.51
2019-02-14T20:07:59.609Z,7.49
2019-02-14T20:10:28.983Z,7.44
2019-02-14T20:12:58.331Z,7.54
2019-02-14T20:15:37.081Z,7.51
2019-02-14T20:18:01.873Z,7.50
2019-02-14T20:20:31.606Z,7.47
2019-02-14T20:23:01.312Z,7.47
2019-02-14T20:25:31.057Z,7.45
2019-02-14T20:28:00.390Z,7.39
2019-02-14T20:30:31.833Z,7.34
2019-02-14T20:33:04.740Z,7.36
2019-02-14T20:35:34.449Z,7.35
2019-02-14T20:38:03.844Z,7.32
2019-02-14T20:40:33.218Z,7.36
2019-02-14T20:43:03.057Z,7.32
2019-02-14T20:45:35.073Z,7.38
2019-02-14T20:48:04.411Z,7.40
2019-02-14T20:50:35.239Z,7.48
2019-02-14T20:53:07.843Z,7.51
2019-02-14T20:55:37.209Z,7.50
2019-02-14T20:58:06.536Z,7.53
2019-02-14T21:00:38.681Z,7.62
2019-02-14T21:03:08.020Z,7.59
2019-02-14T21:05:37.424Z,7.61
2019-02-14T21:08:06.858Z,7.60
2019-02-14T21:10:36.240Z,7.53
2019-02-14T21:13:05.564Z,7.52
2019-02-14T21:15:34.935Z,7.52
2019-02-14T21:18:06.939Z,7.48
2019-02-14T21:20:36.314Z,7.49
2019-02-14T21:23:05.664Z,7.48
2019-02-14T21:25:35.071Z,7.50
2019-02-14T21:28:05.496Z,7.51
2019-02-14T21:30:36.343Z,7.53
2019-02-14T21:33:07.592Z,7.47
2019-02-14T21:35:37.148Z,7.49
2019-02-14T21:38:06.956Z,7.53
2019-02-14T21:40:36.336Z,7.52
2019-02-14T21:43:05.819Z,7.46
2019-02-14T21:45:35.361Z,7.51
2019-02-14T21:48:05.701Z,7.54
2019-02-14T21:50:35.118Z,7.54
2019-02-14T21:53:04.466Z,7.49
2019-02-14T21:55:38.043Z,7.46
2019-02-14T21:58:08.543Z,7.43
2019-02-14T22:00:37.886Z,7.49
2019-02-14T22:03:07.375Z,7.45
2019-02-14T22:05:36.808Z,7.45
2019-02-14T22:08:06.143Z,7.44
2019-02-14T22:10:35.779Z,7.48
2019-02-14T22:13:05.130Z,7.48
2019-02-14T22:15:34.485Z,7.42
2019-02-14T22:18:04.098Z,7.39
2019-02-14T22:20:33.463Z,7.30
2019-02-14T22:23:02.836Z,7.28
2019-02-14T22:25:32.182Z,7.33
2019-02-14T22:28:01.554Z,7.33
2019-02-14T22:30:30.885Z,7.30
2019-02-14T22:33:00.250Z,7.30
2019-02-14T22:35:29.581Z,7.27
2019-02-14T22:37:58.956Z,7.20
2019-02-14T22:40:28.292Z,7.22
2019-02-14T22:42:57.656Z,7.21
2019-02-14T22:45:26.985Z,7.19
2019-02-14T22:47:56.340Z,7.21
2019-02-14T22:50:25.679Z,7.23
2019-02-14T22:52:55.042Z,7.21
2019-02-14T22:55:24.823Z,7.16
2019-02-14T22:57:54.184Z,7.15
2019-02-14T23:00:38.286Z,7.11
2019-02-14T23:03:07.668Z,7.10
2019-02-14T23:05:37.001Z,7.08
2019-02-14T23:08:06.364Z,7.02
2019-02-14T23:10:35.705Z,6.98
2019-02-14T23:13:05.089Z,6.92
2019-02-14T23:15:34.428Z,6.87
2019-02-14T23:18:03.957Z,6.84
2019-02-14T23:20:33.284Z,6.81
2019-02-14T23:23:02.649Z,6.76
2019-02-14T23:25:31.985Z,6.68
2019-02-14T23:28:01.342Z,6.61
2019-02-14T23:30:30.673Z,6.52
2019-02-14T23:33:00.112Z,6.43
2019-02-14T23:35:29.441Z,6.35
2019-02-14T23:37:58.809Z,6.32
2019-02-14T23:40:28.149Z,6.25
2019-02-14T23:43:04.329Z,6.18
2019-02-14T23:45:28.552Z,6.12
2019-02-14T23:47:57.909Z,6.08
2019-02-14T23:50:27.246Z,6.02
2019-02-14T23:52:56.605Z,6.03
2019-02-14T23:55:26.093Z,6.00
2019-02-14T23:57:55.458Z,5.96
